createdAt,value
2022-12-24T00:01:04.773Z,2.43
2022-12-24T00:03:32.530Z,1.67
2022-12-24T00:05:59.558Z,2.50
2022-12-24T00:08:26.360Z,1.83
2022-12-24T00:10:53.984Z,1.40
2022-12-24T00:13:21.516Z,1.87
2022-12-24T00:15:48.947Z,1.70
2022-12-24T00:18:16.314Z,1.90
2022-12-24T00:20:47.189Z,1.57
2022-12-24T00:23:14.858Z,2.30
2022-12-24T00:25:41.663Z,1.67
2022-12-24T00:28:08.755Z,1.50
2022-12-24T00:30:37.376Z,2.10
2022-12-24T00:33:04.548Z,2.87
2022-12-24T00:35:37.681Z,2.57
2022-12-24T00:38:05.564Z,1.83
2022-12-24T00:40:32.762Z,1.97
2022-12-24T00:42:59.725Z,2.33
2022-12-24T00:45:29.417Z,2.60
2022-12-24T00:47:56.180Z,2.30
2022-12-24T00:50:23.196Z,2.10
2022-12-24T00:52:49.975Z,2.80
2022-12-24T00:55:17.021Z,2.20
2022-12-24T00:57:43.653Z,2.00
2022-12-24T01:00:10.988Z,2.10
2022-12-24T01:02:38.462Z,2.13
2022-12-24T01:05:11.892Z,2.43
2022-12-24T01:07:41.956Z,1.73
2022-12-24T01:10:15.634Z,2.13
2022-12-24T01:12:42.999Z,1.47
2022-12-24T01:15:11.140Z,1.87
2022-12-24T01:17:38.571Z,2.27
2022-12-24T01:20:07.270Z,2.30
2022-12-24T01:22:34.484Z,1.80
2022-12-24T01:25:01.164Z,1.93
2022-12-24T01:27:28.248Z,2.27
2022-12-24T01:29:55.023Z,1.90
2022-12-24T01:32:21.868Z,1.70
2022-12-24T01:34:48.588Z,2.10
2022-12-24T01:37:15.351Z,2.30
2022-12-24T01:39:42.067Z,1.90
2022-12-24T01:42:37.075Z,2.00
2022-12-24T01:45:42.619Z,2.10
2022-12-24T01:48:21.281Z,1.97
2022-12-24T01:50:53.826Z,1.87
2022-12-24T01:53:20.982Z,2.10
2022-12-24T01:55:48.773Z,1.57
2022-12-24T01:58:18.097Z,2.10
2022-12-24T02:00:45.094Z,1.37
2022-12-24T02:03:12.374Z,2.20
2022-12-24T02:05:47.451Z,2.10
2022-12-24T02:08:16.213Z,2.20
2022-12-24T02:10:43.326Z,2.50
2022-12-24T02:13:11.103Z,1.93
2022-12-24T02:16:03.563Z,2.77
2022-12-24T02:18:56.154Z,2.10
2022-12-24T02:21:38.115Z,2.33
2022-12-24T02:24:28.938Z,1.83
2022-12-24T02:27:10.156Z,1.60
2022-12-24T02:29:56.528Z,1.87
2022-12-24T02:32:26.842Z,2.43
2022-12-24T02:35:10.025Z,2.20
2022-12-24T02:37:42.694Z,1.37
2022-12-24T02:40:16.377Z,1.90
2022-12-24T02:42:50.186Z,1.37
2022-12-24T02:45:20.913Z,2.10
2022-12-24T02:47:50.028Z,1.70
2022-12-24T02:50:18.260Z,1.87
2022-12-24T02:52:46.805Z,1.77
2022-12-24T02:55:45.611Z,2.93
2022-12-24T02:58:45.270Z,2.93
2022-12-24T03:01:18.174Z,2.63
2022-12-24T03:03:50.985Z,1.83
2022-12-24T03:06:27.397Z,2.43
2022-12-24T03:08:57.184Z,2.60
2022-12-24T03:11:24.144Z,3.37
2022-12-24T03:13:52.813Z,5.47
2022-12-24T03:16:24.800Z,3.73
2022-12-24T03:18:54.219Z,2.40
2022-12-24T03:21:23.988Z,2.57
2022-12-24T03:23:50.864Z,2.07
2022-12-24T03:26:20.181Z,1.60
2022-12-24T03:28:47.940Z,1.70
2022-12-24T03:31:15.874Z,2.23
2022-12-24T03:33:42.945Z,2.20
2022-12-24T03:36:10.473Z,1.53
2022-12-24T03:38:37.697Z,1.97
2022-12-24T03:41:04.786Z,1.70
2022-12-24T03:43:31.888Z,1.67
2022-12-24T03:45:59.207Z,1.83
2022-12-24T03:48:32.353Z,1.80
2022-12-24T03:50:59.582Z,1.43
2022-12-24T03:53:26.279Z,1.27
2022-12-24T03:55:53.053Z,2.60
2022-12-24T03:58:19.833Z,1.50
2022-12-24T04:00:46.715Z,2.00
2022-12-24T04:03:13.778Z,1.70
2022-12-24T04:05:40.904Z,1.80
2022-12-24T04:08:08.151Z,2.10
2022-12-24T04:10:34.975Z,1.43
2022-12-24T04:13:01.666Z,1.63
2022-12-24T04:15:28.527Z,1.43
2022-12-24T04:17:55.272Z,1.07
2022-12-24T04:20:22.195Z,1.50
2022-12-24T04:22:48.919Z,1.73
2022-12-24T04:25:15.820Z,1.43
2022-12-24T04:27:42.683Z,1.40
2022-12-24T04:30:09.815Z,1.90
2022-12-24T04:32:36.567Z,1.27
2022-12-24T04:35:03.328Z,1.10
2022-12-24T04:37:30.209Z,1.00
2022-12-24T04:39:56.968Z,1.27
2022-12-24T04:42:23.866Z,1.50
2022-12-24T04:44:50.619Z,2.20
2022-12-24T04:47:17.336Z,1.63
2022-12-24T04:49:44.300Z,2.20
2022-12-24T04:52:11.000Z,1.77
2022-12-24T04:54:37.761Z,2.00
2022-12-24T04:57:04.439Z,1.90
2022-12-24T04:59:31.249Z,1.10
2022-12-24T05:01:58.597Z,1.13
2022-12-24T05:04:25.379Z,1.13
2022-12-24T05:06:52.224Z,2.83
2022-12-24T05:09:18.910Z,1.70
2022-12-24T05:11:45.727Z,2.47
2022-12-24T05:14:12.426Z,4.67
2022-12-24T05:16:39.352Z,3.10
2022-12-24T05:19:06.110Z,3.47
2022-12-24T05:21:33.012Z,2.30
2022-12-24T05:24:18.471Z,1.80
2022-12-24T05:26:54.351Z,1.03
2022-12-24T05:29:21.544Z,1.30
2022-12-24T05:31:48.397Z,1.20
2022-12-24T05:34:16.567Z,1.53
2022-12-24T05:36:43.887Z,2.07
2022-12-24T05:39:16.288Z,3.80
2022-12-24T05:41:43.843Z,6.07
2022-12-24T05:44:10.755Z,4.20
2022-12-24T05:46:38.735Z,3.47
2022-12-24T05:49:05.505Z,1.90
2022-12-24T05:51:32.651Z,1.00
2022-12-24T05:53:59.281Z,1.00
2022-12-24T05:56:26.395Z,1.10
2022-12-24T05:58:54.696Z,0.80
2022-12-24T06:01:22.622Z,0.90
2022-12-24T06:03:50.032Z,0.93
2022-12-24T06:06:21.037Z,6.50
2022-12-24T06:08:50.015Z,2.53
2022-12-24T06:11:19.138Z,12.83
2022-12-24T06:13:46.323Z,4.87
2022-12-24T06:16:15.993Z,2.60
2022-12-24T06:18:43.788Z,2.23
2022-12-24T06:21:11.371Z,1.30
2022-12-24T06:23:40.500Z,1.30
2022-12-24T06:26:09.218Z,1.77
2022-12-24T06:28:37.834Z,1.27
2022-12-24T06:31:06.484Z,1.30
2022-12-24T06:33:34.162Z,2.10
2022-12-24T06:36:01.368Z,1.20
2022-12-24T06:38:30.907Z,1.40
2022-12-24T06:40:57.574Z,1.20
2022-12-24T06:43:24.676Z,1.30
2022-12-24T06:45:51.595Z,1.30
2022-12-24T06:48:18.479Z,12.83
2022-12-24T06:50:45.639Z,3.73
2022-12-24T06:53:13.887Z,2.43
2022-12-24T06:55:40.657Z,1.77
2022-12-24T06:58:07.751Z,1.60
2022-12-24T07:00:34.570Z,1.07
2022-12-24T07:03:01.360Z,1.13
2022-12-24T07:05:28.754Z,1.30
2022-12-24T07:07:55.888Z,1.07
2022-12-24T07:10:23.128Z,1.10
2022-12-24T07:12:50.158Z,1.30
2022-12-24T07:15:17.331Z,1.07
2022-12-24T07:17:44.608Z,1.10
2022-12-24T07:20:14.917Z,0.90
2022-12-24T07:22:42.570Z,0.97
2022-12-24T07:25:10.128Z,1.13
2022-12-24T07:27:37.564Z,0.90
2022-12-24T07:30:05.014Z,0.90
2022-12-24T07:32:31.862Z,1.10
2022-12-24T07:34:58.966Z,1.10
2022-12-24T07:37:25.962Z,0.97
2022-12-24T07:39:52.962Z,0.67
2022-12-24T07:42:20.151Z,1.47
2022-12-24T07:44:47.032Z,1.13
2022-12-24T07:47:13.891Z,1.00
2022-12-24T07:49:40.680Z,1.30
2022-12-24T07:52:07.726Z,3.33
2022-12-24T07:54:34.531Z,1.93
2022-12-24T07:57:01.207Z,1.37
2022-12-24T07:59:28.256Z,1.40
2022-12-24T08:01:55.090Z,1.40
2022-12-24T08:04:22.033Z,2.17
2022-12-24T08:06:49.137Z,3.73
2022-12-24T08:09:15.844Z,2.63
2022-12-24T08:11:48.121Z,1.57
2022-12-24T08:14:18.649Z,2.00
2022-12-24T08:16:45.407Z,2.90
2022-12-24T08:19:12.581Z,2.17
2022-12-24T08:21:39.380Z,2.90
2022-12-24T08:24:06.437Z,7.20
2022-12-24T08:26:33.436Z,3.60
2022-12-24T08:29:00.238Z,2.57
2022-12-24T08:31:27.376Z,2.40
2022-12-24T08:33:54.204Z,2.23
2022-12-24T08:36:21.082Z,1.73
2022-12-24T08:38:48.163Z,1.60
2022-12-24T08:41:14.900Z,2.10
2022-12-24T08:43:41.876Z,1.77
2022-12-24T08:46:09.909Z,1.97
2022-12-24T08:48:36.803Z,1.50
2022-12-24T08:51:11.027Z,1.43
2022-12-24T08:53:38.618Z,1.50
2022-12-24T08:56:07.439Z,2.40
2022-12-24T08:58:34.471Z,1.80
2022-12-24T09:01:01.705Z,2.00
2022-12-24T09:03:28.803Z,1.93
2022-12-24T09:05:55.667Z,2.10
2022-12-24T09:08:22.776Z,2.40
2022-12-24T09:10:49.529Z,1.77
2022-12-24T09:13:16.468Z,1.87
2022-12-24T09:15:43.149Z,2.40
2022-12-24T09:18:10.800Z,2.10
2022-12-24T09:20:38.720Z,2.07
2022-12-24T09:23:08.415Z,1.87
2022-12-24T09:25:35.317Z,1.97
2022-12-24T09:28:02.105Z,2.10
2022-12-24T09:30:28.984Z,2.27
2022-12-24T09:32:55.682Z,1.73
2022-12-24T09:35:22.375Z,4.83
2022-12-24T09:38:02.761Z,3.30
2022-12-24T09:40:37.916Z,2.63
2022-12-24T09:43:21.170Z,2.80
2022-12-24T09:46:01.789Z,2.13
2022-12-24T09:48:31.369Z,2.37
2022-12-24T09:51:13.146Z,2.00
2022-12-24T09:54:04.781Z,2.37
2022-12-24T09:56:38.373Z,2.03
2022-12-24T09:59:11.522Z,2.27
2022-12-24T10:01:38.463Z,1.50
2022-12-24T10:04:12.938Z,1.77
2022-12-24T10:06:57.748Z,1.70
2022-12-24T10:09:33.960Z,2.00
2022-12-24T10:12:32.183Z,1.80
2022-12-24T10:15:24.408Z,2.30
2022-12-24T10:18:00.053Z,1.63
2022-12-24T10:20:38.005Z,1.73
2022-12-24T10:23:36.094Z,2.00
2022-12-24T10:26:14.301Z,1.83
2022-12-24T10:29:02.344Z,2.27
2022-12-24T10:31:36.725Z,1.90
2022-12-24T10:34:13.237Z,1.80
2022-12-24T10:36:40.335Z,1.73
2022-12-24T10:39:18.568Z,1.90
2022-12-24T10:41:48.280Z,1.90
2022-12-24T10:44:18.593Z,1.77
2022-12-24T10:46:47.833Z,2.40
2022-12-24T10:49:30.230Z,2.10
2022-12-24T10:52:04.203Z,1.70
2022-12-24T10:54:38.890Z,4.17
2022-12-24T10:57:22.559Z,2.50
2022-12-24T10:59:56.637Z,2.17
2022-12-24T11:02:32.445Z,2.20
2022-12-24T11:05:00.955Z,4.17
2022-12-24T11:07:30.303Z,11.27
2022-12-24T11:10:23.912Z,20.63
2022-12-24T11:13:06.191Z,10.67
2022-12-24T11:15:38.084Z,7.60
2022-12-24T11:18:13.404Z,5.30
2022-12-24T11:20:40.895Z,3.50
2022-12-24T11:23:15.906Z,2.80
2022-12-24T11:25:48.313Z,2.67
2022-12-24T11:28:30.704Z,2.90
2022-12-24T11:31:19.849Z,2.20
2022-12-24T11:33:52.838Z,2.30
2022-12-24T11:36:24.480Z,2.20
2022-12-24T11:38:57.017Z,2.33
2022-12-24T11:41:25.349Z,2.50
2022-12-24T11:44:00.444Z,1.97
2022-12-24T11:46:27.425Z,2.33
2022-12-24T11:49:12.094Z,1.63
2022-12-24T11:51:45.869Z,2.67
2022-12-24T11:54:27.725Z,2.40
2022-12-24T11:57:00.137Z,1.70
2022-12-24T11:59:48.649Z,2.00
2022-12-24T12:02:42.096Z,2.83
2022-12-24T12:05:15.969Z,1.80
2022-12-24T12:07:44.858Z,2.27
2022-12-24T12:10:19.167Z,2.20
2022-12-24T12:12:54.628Z,2.70
2022-12-24T12:15:29.955Z,2.03
2022-12-24T12:18:09.690Z,2.13
2022-12-24T12:20:43.006Z,2.50
2022-12-24T12:23:39.110Z,2.30
2022-12-24T12:26:26.128Z,2.47
2022-12-24T12:29:02.059Z,2.40
2022-12-24T12:31:37.700Z,1.80
2022-12-24T12:34:16.448Z,2.37
2022-12-24T12:37:14.276Z,2.83
2022-12-24T12:39:41.670Z,2.90
2022-12-24T12:42:34.357Z,2.87
2022-12-24T12:45:04.186Z,2.20
2022-12-24T12:47:48.321Z,2.23
2022-12-24T12:50:30.244Z,2.10
2022-12-24T12:53:15.345Z,2.40
2022-12-24T12:55:49.766Z,3.67
2022-12-24T12:58:27.820Z,2.90
2022-12-24T13:01:03.752Z,4.33
2022-12-24T13:03:58.776Z,5.37
2022-12-24T13:06:31.395Z,3.40
2022-12-24T13:09:23.370Z,2.97
2022-12-24T13:12:18.958Z,2.33
2022-12-24T13:15:25.876Z,2.30
2022-12-24T13:18:07.824Z,2.00
2022-12-24T13:20:42.145Z,2.13
2022-12-24T13:23:18.065Z,1.80
2022-12-24T13:25:47.876Z,2.27
2022-12-24T13:28:32.264Z,2.20
2022-12-24T13:31:17.316Z,2.03
2022-12-24T13:33:44.076Z,2.10
2022-12-24T13:36:19.131Z,2.40
2022-12-24T13:38:52.126Z,2.10
2022-12-24T13:41:39.318Z,2.30
2022-12-24T13:44:07.349Z,2.43
2022-12-24T13:46:50.937Z,2.40
2022-12-24T13:49:21.925Z,2.20
2022-12-24T13:51:50.692Z,2.13
2022-12-24T13:54:23.260Z,3.10
2022-12-24T13:56:50.446Z,2.60
2022-12-24T13:59:38.106Z,2.90
2022-12-24T14:02:17.432Z,3.23
2022-12-24T14:04:44.523Z,2.40
2022-12-24T14:07:11.675Z,2.47
2022-12-24T14:09:47.388Z,2.37
2022-12-24T14:12:16.950Z,2.17
2022-12-24T14:14:43.990Z,2.23
2022-12-24T14:17:24.136Z,2.47
2022-12-24T14:20:00.937Z,2.27
2022-12-24T14:22:36.172Z,2.50
2022-12-24T14:25:16.387Z,2.50
2022-12-24T14:27:52.438Z,1.87
2022-12-24T14:30:23.710Z,2.40
2022-12-24T14:32:52.650Z,2.77
2022-12-24T14:35:21.573Z,2.40
2022-12-24T14:38:13.352Z,2.70
2022-12-24T14:41:05.681Z,2.73
2022-12-24T14:43:43.006Z,2.53
2022-12-24T14:46:26.479Z,2.43
2022-12-24T14:48:59.791Z,2.60
2022-12-24T14:51:42.679Z,2.90
2022-12-24T14:54:17.367Z,2.13
2022-12-24T14:56:44.424Z,2.47
2022-12-24T14:59:19.918Z,3.20
2022-12-24T15:01:47.413Z,2.40
2022-12-24T15:04:15.347Z,3.40
2022-12-24T15:06:49.906Z,2.80
2022-12-24T15:09:24.206Z,3.53
2022-12-24T15:11:53.771Z,2.13
2022-12-24T15:14:23.221Z,2.40
2022-12-24T15:17:01.008Z,3.50
2022-12-24T15:19:30.588Z,2.90
2022-12-24T15:21:57.407Z,2.97
2022-12-24T15:24:25.712Z,2.10
2022-12-24T15:26:52.665Z,2.43
2022-12-24T15:29:28.516Z,3.37
2022-12-24T15:32:00.749Z,2.60
2022-12-24T15:34:40.105Z,2.87
2022-12-24T15:37:35.370Z,2.93
2022-12-24T15:40:10.213Z,3.20
2022-12-24T15:42:41.944Z,3.83
2022-12-24T15:45:26.742Z,5.93
2022-12-24T15:48:09.465Z,7.80
2022-12-24T15:50:58.158Z,7.57
2022-12-24T15:53:35.173Z,7.40
2022-12-24T15:56:11.958Z,5.70
2022-12-24T15:58:44.511Z,4.17
2022-12-24T16:01:14.566Z,4.07
2022-12-24T16:03:54.989Z,4.13
2022-12-24T16:06:22.731Z,4.23
2022-12-24T16:08:50.976Z,5.03
2022-12-24T16:11:36.551Z,6.33
2022-12-24T16:14:14.159Z,7.43
2022-12-24T16:16:54.160Z,7.17
2022-12-24T16:19:24.341Z,6.57
2022-12-24T16:21:54.369Z,6.77
2022-12-24T16:24:27.269Z,7.47
2022-12-24T16:26:54.969Z,8.40
2022-12-24T16:29:23.127Z,8.30
2022-12-24T16:31:55.911Z,8.43
2022-12-24T16:34:25.907Z,6.20
2022-12-24T16:36:52.863Z,7.20
2022-12-24T16:39:25.359Z,7.50
2022-12-24T16:42:12.206Z,7.67
2022-12-24T16:44:39.628Z,8.57
2022-12-24T16:47:09.366Z,7.97
2022-12-24T16:49:38.634Z,6.73
2022-12-24T16:52:07.824Z,6.67
2022-12-24T16:54:34.805Z,6.27
2022-12-24T16:57:01.514Z,7.70
2022-12-24T16:59:28.635Z,7.47
2022-12-24T17:01:55.447Z,10.90
2022-12-24T17:04:22.366Z,13.80
2022-12-24T17:06:50.601Z,11.73
2022-12-24T17:09:17.833Z,8.97
2022-12-24T17:11:44.614Z,7.17
2022-12-24T17:14:19.878Z,6.70
2022-12-24T17:16:47.218Z,7.90
2022-12-24T17:19:14.094Z,8.23
2022-12-24T17:21:41.154Z,9.23
2022-12-24T17:24:08.878Z,8.63
2022-12-24T17:26:36.845Z,8.87
2022-12-24T17:29:05.217Z,9.67
2022-12-24T17:31:33.367Z,10.30
2022-12-24T17:34:00.526Z,11.20
2022-12-24T17:36:27.409Z,10.63
2022-12-24T17:38:54.101Z,10.80
2022-12-24T17:41:21.550Z,10.23
2022-12-24T17:43:48.785Z,10.37
2022-12-24T17:46:18.554Z,9.43
2022-12-24T17:48:45.476Z,8.67
2022-12-24T17:51:14.404Z,8.33
2022-12-24T17:53:42.786Z,8.00
2022-12-24T17:56:12.360Z,8.63
2022-12-24T17:58:43.481Z,7.37
2022-12-24T18:01:13.340Z,7.40
2022-12-24T18:03:40.495Z,8.07
2022-12-24T18:06:09.351Z,9.67
2022-12-24T18:08:36.645Z,10.50
2022-12-24T18:11:14.111Z,9.87
2022-12-24T18:13:41.684Z,10.43
2022-12-24T18:16:21.946Z,9.90
2022-12-24T18:18:49.886Z,9.03
2022-12-24T18:21:19.739Z,11.93
2022-12-24T18:23:48.249Z,11.37
2022-12-24T18:26:16.107Z,12.13
2022-12-24T18:28:43.396Z,15.40
2022-12-24T18:31:15.887Z,15.47
2022-12-24T18:33:43.399Z,15.27
2022-12-24T18:36:10.358Z,15.07
2022-12-24T18:38:37.801Z,15.60
2022-12-24T18:41:09.575Z,13.73
2022-12-24T18:43:36.892Z,12.03
2022-12-24T18:46:31.527Z,13.60
2022-12-24T18:49:00.109Z,12.30
2022-12-24T18:51:34.492Z,14.63
2022-12-24T18:54:02.910Z,13.70
2022-12-24T18:56:29.965Z,13.27
2022-12-24T18:58:59.509Z,12.63
2022-12-24T19:01:36.540Z,12.33
2022-12-24T19:04:03.628Z,13.97
2022-12-24T19:06:30.666Z,13.00
2022-12-24T19:08:59.863Z,17.30
2022-12-24T19:11:30.624Z,17.17
2022-12-24T19:13:58.490Z,15.13
2022-12-24T19:16:26.545Z,14.00
2022-12-24T19:18:53.515Z,12.33
2022-12-24T19:21:21.258Z,13.53
2022-12-24T19:23:48.562Z,14.83
2022-12-24T19:26:17.465Z,12.93
2022-12-24T19:28:45.234Z,14.37
2022-12-24T19:31:15.567Z,16.20
2022-12-24T19:33:54.613Z,20.33
2022-12-24T19:36:27.784Z,17.40
2022-12-24T19:38:55.710Z,13.70
2022-12-24T19:41:24.644Z,12.40
2022-12-24T19:43:54.756Z,12.03
2022-12-24T19:46:26.797Z,11.60
2022-12-24T19:48:56.420Z,11.47
2022-12-24T19:51:24.139Z,11.63
2022-12-24T19:53:52.353Z,11.43
2022-12-24T19:56:20.755Z,10.10
2022-12-24T19:58:48.438Z,9.57
2022-12-24T20:01:20.575Z,9.37
2022-12-24T20:03:49.105Z,8.67
2022-12-24T20:06:18.274Z,9.10
2022-12-24T20:08:45.387Z,9.70
2022-12-24T20:11:14.642Z,10.03
2022-12-24T20:13:42.259Z,10.13
2022-12-24T20:16:15.784Z,9.87
2022-12-24T20:18:43.346Z,9.23
2022-12-24T20:21:11.878Z,9.00
2022-12-24T20:23:40.085Z,8.03
2022-12-24T20:26:10.109Z,11.07
2022-12-24T20:28:37.430Z,11.87
2022-12-24T20:31:15.953Z,12.40
2022-12-24T20:33:43.871Z,14.70
2022-12-24T20:36:11.837Z,12.37
2022-12-24T20:38:39.739Z,9.80
2022-12-24T20:41:07.144Z,9.30
2022-12-24T20:43:37.118Z,8.20
2022-12-24T20:46:05.782Z,8.30
2022-12-24T20:48:32.827Z,8.23
2022-12-24T20:51:00.461Z,7.97
2022-12-24T20:53:27.644Z,8.13
2022-12-24T20:55:54.987Z,8.00
2022-12-24T20:58:22.053Z,7.23
2022-12-24T21:00:49.372Z,7.23
2022-12-24T21:03:17.587Z,7.17
2022-12-24T21:05:45.219Z,6.17
2022-12-24T21:08:13.332Z,6.50
2022-12-24T21:10:40.921Z,5.80
2022-12-24T21:13:07.877Z,5.73
2022-12-24T21:15:40.066Z,5.97
2022-12-24T21:18:11.751Z,5.50
2022-12-24T21:20:40.466Z,5.83
2022-12-24T21:23:07.638Z,5.17
2022-12-24T21:25:34.567Z,5.50
2022-12-24T21:28:01.694Z,5.47
2022-12-24T21:30:29.362Z,5.57
2022-12-24T21:32:56.137Z,4.77
2022-12-24T21:35:23.665Z,4.67
2022-12-24T21:37:51.206Z,5.00
2022-12-24T21:40:18.110Z,4.73
2022-12-24T21:42:44.797Z,5.00
2022-12-24T21:45:11.978Z,5.17
2022-12-24T21:47:38.675Z,5.13
2022-12-24T21:50:31.619Z,5.03
2022-12-24T21:53:18.242Z,4.53
2022-12-24T21:55:45.198Z,4.67
2022-12-24T21:58:11.866Z,5.30
2022-12-24T22:00:38.924Z,4.90
2022-12-24T22:03:05.993Z,4.23
2022-12-24T22:05:34.307Z,4.20
2022-12-24T22:08:20.234Z,3.77
2022-12-24T22:11:05.397Z,4.00
2022-12-24T22:13:32.429Z,4.60
2022-12-24T22:15:59.280Z,3.83
2022-12-24T22:18:26.408Z,4.27
2022-12-24T22:20:53.334Z,4.17
2022-12-24T22:23:20.297Z,4.53
2022-12-24T22:25:47.455Z,4.73
2022-12-24T22:28:14.333Z,5.40
2022-12-24T22:30:43.536Z,5.13
2022-12-24T22:33:10.981Z,5.37
2022-12-24T22:35:41.352Z,7.10
2022-12-24T22:38:09.442Z,7.90
2022-12-24T22:40:39.058Z,7.97
2022-12-24T22:43:05.889Z,7.13
2022-12-24T22:45:32.863Z,7.07
2022-12-24T22:47:59.484Z,6.80
2022-12-24T22:50:26.450Z,6.83
2022-12-24T22:52:53.755Z,6.17
2022-12-24T22:55:20.783Z,6.27
2022-12-24T22:57:47.632Z,6.47
2022-12-24T23:00:44.902Z,6.47
2022-12-24T23:03:12.644Z,6.10
2022-12-24T23:05:39.645Z,6.30
2022-12-24T23:08:08.174Z,6.30
2022-12-24T23:10:35.842Z,6.53
2022-12-24T23:13:22.166Z,5.40
2022-12-24T23:15:49.640Z,5.20
2022-12-24T23:18:16.552Z,5.80
2022-12-24T23:20:48.380Z,5.73
2022-12-24T23:23:15.410Z,6.03
2022-12-24T23:25:42.367Z,6.17
2022-12-24T23:28:09.421Z,6.03
2022-12-24T23:30:36.183Z,6.47
2022-12-24T23:33:03.019Z,5.57
2022-12-24T23:35:30.386Z,5.50
2022-12-24T23:37:57.116Z,5.80
2022-12-24T23:40:24.136Z,6.07
2022-12-24T23:42:51.016Z,5.50
2022-12-24T23:45:17.831Z,6.40
2022-12-24T23:47:44.502Z,6.23
2022-12-24T23:50:11.843Z,5.97
2022-12-24T23:52:38.579Z,5.67
2022-12-24T23:55:05.966Z,4.23
2022-12-24T23:57:32.983Z,3.73
2022-12-24T23:59:59.803Z,4.50
